Decoded Metar for LEAL (ALICANTE in SPAIN) (IATA:ALC) | Meteo·Mobile Aviation Weather
aviador You're here:

LEAL Decoded Metar

ALICANTE in SPAIN
Report Time2018-10-22 14:30:00
UTC Time2018-10-22 14:46:36
Flight Rules vfr VFR
Wind100° at 08 kt
W.Decomp.*RWY 10: 8.0 kt HW 0.1 kt RCW
W.Rank100° ranks 7
Current wind is above 100° avg. (6.7)
Visibility9999 m
Phenomena:N/A
Clouds:N/A
Expected CloudBase > 2,400 ft AGL from Temp-Dew spread
CeilingNone
Temp23°C (ISA +8)
Dew Point17°C (69% RH)
AAT22.5°C
QNH1020 hPa
Density Alt1,079 ft
Elevation102 ft
Report Wrong Elevation
Raw Report
LEAL 221430Z 10008KT 070V140 CAVOK 23/17 Q1020 NOSIG=

Extra information for LEAL:More info

Metar Taf Metar & Taf Last 4 Metars F.Rules Stats Wind Profile Meteogram Temp Stats Airport Information Weather charts Add Link Nearby VenuesMetar ALERT Operation Metar Decoded Social comments